Flight Track Log - Related Links

Times and Time Zones

All times are in EDT time to prevent confusion due to time zone crossing. See the N1250V flight status page for this flight to view local times or setup timezone preferences in your user account.

Time Position Orientation Groundspeed Altitude Reporting Facility
EDT Latitude Longitude Course Direction KTS MPH feet Rate Location/Type
Mon 10:24:31 AM 39.2714 -106.9008 283° West 161 185 10,500  Level Denver Center
Mon 10:25:33 AM 39.2806 -106.9539 283° West 149 171 12,500 1,742 Climbing Denver Center
Mon 10:26:35 AM 39.3058 -106.9944 309° West 156 180 14,100 1,500 Climbing Denver Center
Mon 10:27:37 AM 39.3264 -106.9431 63° Northeast 188 216 15,600 1,694 Climbing Denver Center
Mon 10:28:39 AM 39.3331 -106.8636 84° East 194 223 17,600 1,694 Climbing Denver Center
Mon 10:29:41 AM 39.3547 -106.7997 66° East 198 228 19,100 1,500 Climbing Denver Center
Mon 10:30:43 AM 39.3769 -106.7306 67° East 202 232 20,700 919 Climbing Denver Center
Mon 10:31:45 AM 39.4106 -106.6392 65° Northeast 249 287 21,000 145 Climbing Denver Center
Mon 10:32:47 AM 39.4561 -106.5453 58° Northeast 310 357 21,000  Level Denver Center
Mon 10:33:49 AM 39.5086 -106.4292 60° Northeast 343 395 21,000 -97 Level Denver Center
Mon 10:34:51 AM 39.5653 -106.3256 55° Northeast 351 404 20,800 -677 Descending Denver Center
Mon 10:35:53 AM 39.6208 -106.2228 55° Northeast 349 402 19,600 -1,065 Descending Denver Center
Mon 10:36:55 AM 39.6689 -106.1122 61° Northeast 344 396 18,600 -774 Descending Denver Center
Mon 10:37:57 AM 39.6983 -105.9956 72° East 341 392 18,000 -726 Descending Denver Center
Mon 10:38:59 AM 39.7217 -105.8803 75° East 335 386 17,100 -532 Descending Denver Center
Mon 10:40:01 AM 39.7531 -105.7528 72° East 313 360 16,900 -97 Descending Denver Center
Mon 10:41:03 AM 39.7739 -105.6478 75° East 302 348 16,900 -97 Level Denver Center
Mon 10:42:05 AM 39.7939 -105.5450 76° East 296 341 16,700 -726 Descending Denver Center
Mon 10:43:07 AM 39.8231 -105.4333 71° East 301 346 15,400 -1,306 Descending Denver Center
Mon 10:44:09 AM 39.8467 -105.3408 72° East 270 311 14,000 -1,887 Descending Denver Center
Mon 10:45:11 AM 39.8517 -105.2492 86° East 243 280 11,500 -2,371 Descending Denver Center
Mon 10:46:13 AM 39.8331 -105.1725 108° East 223 257 9,100 -1,790 Descending Denver Center
Mon 10:47:15 AM 39.8297 -105.1072 94° East 190 219 7,800 -1,056 Descending Denver Center
Mon 10:48:18 AM 39.8614 -105.0733 39° Northeast 151 174 6,900 -832 Descending Denver Center
Mon 10:49:32 AM 39.8903 -105.0817 348° North 126 145 5,900 -574 Descending Denver Center
Mon 10:50:34 AM 39.9083 -105.1164 304° West 84 97 5,600 -290 Descending Denver Center

Login

Don't have an account? Register now (free) for customized features, flight alerts, and more!